McClanahan, Texas
Current Conditions -  °F | °C
As of 4:51 AM on Friday 28 Nov 2014 (Local Time) from KACT Reporting Station
Clear Clear  
Wind Chill: 36°   Ceiling: Unl
Heat Index: 41°   Visibility: 10mi
Dew Point: 34°   Wind: 8mph
Humidity: 76%   Direction: 200°SSW
Pressure: 30.3"   Gusts: NA
Location:  31.3313°N, 96.8629°W
Report Text: KACT 281051Z 20007KT 10SM CLR 05/01 A3030 RMK AO2 SLP261 T00500011
Loading
Personal Weather Stations






























Interactive Weather Map New forecast layout! Learn more

10-Day Weather Forecast

Advertisements
Track Severe Weather on mobile